createdAt,value
2022-11-18T00:01:49.875Z,10.70
2022-11-18T00:04:16.648Z,10.70
2022-11-18T00:06:43.482Z,10.60
2022-11-18T00:09:10.547Z,10.70
2022-11-18T00:11:56.011Z,10.60
2022-11-18T00:14:27.354Z,10.60
2022-11-18T00:17:02.296Z,10.60
2022-11-18T00:19:39.106Z,10.60
2022-11-18T00:22:08.136Z,10.50
2022-11-18T00:24:34.916Z,10.50
2022-11-18T00:27:01.768Z,10.50
2022-11-18T00:29:28.952Z,10.50
2022-11-18T00:31:58.035Z,10.50
2022-11-18T00:34:25.736Z,10.50
2022-11-18T00:36:52.708Z,10.40
2022-11-18T00:39:20.774Z,10.40
2022-11-18T00:42:06.718Z,10.40
2022-11-18T00:44:33.814Z,10.40
2022-11-18T00:47:04.150Z,10.40
2022-11-18T00:49:32.602Z,10.40
2022-11-18T00:51:59.487Z,10.40
2022-11-18T00:54:26.191Z,10.40
2022-11-18T00:56:53.184Z,10.40
2022-11-18T00:59:21.185Z,10.30
2022-11-18T01:01:49.213Z,10.30
2022-11-18T01:04:16.064Z,10.30
2022-11-18T01:06:42.830Z,10.30
2022-11-18T01:09:12.138Z,10.40
2022-11-18T01:11:57.362Z,10.40
2022-11-18T01:14:25.207Z,10.40
2022-11-18T01:16:55.240Z,10.40
2022-11-18T01:19:22.610Z,10.40
2022-11-18T01:21:49.457Z,10.40
2022-11-18T01:24:16.259Z,10.40
2022-11-18T01:26:43.045Z,10.40
2022-11-18T01:29:10.197Z,10.40
2022-11-18T01:31:55.263Z,10.40
2022-11-18T01:34:24.556Z,10.40
2022-11-18T01:36:52.767Z,10.40
2022-11-18T01:39:20.700Z,10.50
2022-11-18T01:41:47.421Z,10.50
2022-11-18T01:45:11.480Z,10.50
2022-11-18T01:47:54.414Z,10.60
2022-11-18T01:50:22.410Z,10.50
2022-11-18T01:52:52.064Z,10.50
2022-11-18T01:55:24.963Z,10.50
2022-11-18T01:57:57.118Z,10.50
2022-11-18T02:00:23.899Z,10.50
2022-11-18T02:02:51.520Z,10.50
2022-11-18T02:05:19.164Z,10.50
2022-11-18T02:07:47.624Z,10.50
2022-11-18T02:10:21.229Z,10.50
2022-11-18T02:12:50.198Z,10.50
2022-11-18T02:15:18.981Z,10.50
2022-11-18T02:17:55.543Z,10.50
2022-11-18T02:20:35.178Z,10.50
2022-11-18T02:23:42.989Z,10.50
2022-11-18T02:26:33.310Z,10.50
2022-11-18T02:29:04.966Z,10.50
2022-11-18T02:31:55.283Z,10.50
2022-11-18T02:34:30.869Z,10.50
2022-11-18T02:37:27.189Z,10.50
2022-11-18T02:40:08.254Z,10.50
2022-11-18T02:42:38.467Z,10.50
2022-11-18T02:45:21.736Z,10.50
2022-11-18T02:47:51.630Z,10.50
2022-11-18T02:50:23.109Z,10.50
2022-11-18T02:52:54.844Z,10.40
2022-11-18T02:55:23.795Z,10.40
2022-11-18T02:57:51.949Z,10.40
2022-11-18T03:00:18.793Z,10.30
2022-11-18T03:02:47.702Z,10.30
2022-11-18T03:05:46.817Z,10.30
2022-11-18T03:08:20.719Z,10.30
2022-11-18T03:10:59.065Z,10.20
2022-11-18T03:13:41.083Z,10.20
2022-11-18T03:16:16.036Z,10.20
2022-11-18T03:19:05.515Z,10.20
2022-11-18T03:21:37.483Z,10.10
2022-11-18T03:24:18.172Z,10.10
2022-11-18T03:26:52.616Z,10.10
2022-11-18T03:29:25.876Z,10.10
2022-11-18T03:32:05.992Z,10.10
2022-11-18T03:34:39.597Z,10.10
2022-11-18T03:37:10.614Z,10.10
2022-11-18T03:39:43.131Z,10.10
2022-11-18T03:42:37.872Z,10.10
2022-11-18T03:45:22.521Z,10.10
2022-11-18T03:47:59.844Z,10.10
2022-11-18T03:50:39.362Z,10.00
2022-11-18T03:53:07.526Z,10.00
2022-11-18T03:55:39.051Z,9.90
2022-11-18T03:58:34.585Z,10.00
2022-11-18T04:01:21.636Z,9.90
2022-11-18T04:03:48.569Z,9.90
2022-11-18T04:06:37.014Z,10.00
2022-11-18T04:09:08.978Z,9.90
2022-11-18T04:12:03.222Z,9.90
2022-11-18T04:14:35.624Z,10.00
2022-11-18T04:17:09.836Z,9.80
2022-11-18T04:19:38.028Z,9.90
2022-11-18T04:22:05.084Z,9.90
2022-11-18T04:24:32.042Z,9.80
2022-11-18T04:26:58.888Z,9.80
2022-11-18T04:29:25.947Z,9.80
2022-11-18T04:31:52.732Z,9.80
2022-11-18T04:34:19.438Z,9.80
2022-11-18T04:36:46.264Z,9.80
2022-11-18T04:39:12.953Z,9.70
2022-11-18T04:41:57.942Z,9.70
2022-11-18T04:44:32.571Z,9.60
2022-11-18T04:47:02.294Z,9.60
2022-11-18T04:49:29.650Z,9.60
2022-11-18T04:51:57.289Z,9.50
2022-11-18T04:54:25.485Z,9.50
2022-11-18T04:56:52.703Z,9.50
2022-11-18T04:59:22.823Z,9.60
2022-11-18T05:01:49.896Z,9.60
2022-11-18T05:04:19.941Z,9.60
2022-11-18T05:06:46.830Z,9.60
2022-11-18T05:09:14.014Z,9.60
2022-11-18T05:12:01.557Z,9.50
2022-11-18T05:14:30.448Z,9.50
2022-11-18T05:16:58.804Z,9.40
2022-11-18T05:19:25.854Z,9.40
2022-11-18T05:21:52.921Z,9.40
2022-11-18T05:24:19.984Z,9.30
2022-11-18T05:26:47.911Z,9.40
2022-11-18T05:29:14.777Z,9.40
2022-11-18T05:31:41.814Z,9.40
2022-11-18T05:34:11.900Z,9.40
2022-11-18T05:36:39.835Z,9.30
2022-11-18T05:39:06.609Z,9.30
2022-11-18T05:41:51.990Z,9.40
2022-11-18T05:44:18.907Z,9.40
2022-11-18T05:46:45.935Z,9.40
2022-11-18T05:49:12.786Z,9.40
2022-11-18T05:51:39.693Z,9.40
2022-11-18T05:54:09.837Z,9.40
2022-11-18T05:56:38.037Z,9.40
2022-11-18T05:59:05.851Z,9.40
2022-11-18T06:01:38.286Z,9.40
2022-11-18T06:04:16.439Z,9.40
2022-11-18T06:06:44.699Z,9.40
2022-11-18T06:09:12.422Z,9.40
2022-11-18T06:11:43.656Z,9.40
2022-11-18T06:14:14.463Z,9.40
2022-11-18T06:16:46.988Z,9.40
2022-11-18T06:19:13.781Z,9.50
2022-11-18T06:21:40.584Z,9.50
2022-11-18T06:24:09.927Z,9.40
2022-11-18T06:26:38.065Z,9.50
2022-11-18T06:29:07.103Z,9.50
2022-11-18T06:31:33.931Z,9.50
2022-11-18T06:34:01.103Z,9.50
2022-11-18T06:36:27.939Z,9.50
2022-11-18T06:38:54.740Z,9.40
2022-11-18T06:41:21.581Z,9.40
2022-11-18T06:43:49.005Z,9.40
2022-11-18T06:46:35.829Z,9.40
2022-11-18T06:49:05.526Z,9.50
2022-11-18T06:51:32.465Z,9.50
2022-11-18T06:53:59.225Z,9.50
2022-11-18T06:56:26.098Z,9.50
2022-11-18T06:58:54.862Z,9.50
2022-11-18T07:01:24.644Z,9.50
2022-11-18T07:03:52.183Z,9.50
2022-11-18T07:06:22.063Z,9.50
2022-11-18T07:08:49.944Z,9.50
2022-11-18T07:11:22.378Z,9.50
2022-11-18T07:13:49.558Z,9.50
2022-11-18T07:16:21.725Z,9.50
2022-11-18T07:18:50.166Z,9.60
2022-11-18T07:21:19.244Z,9.60
2022-11-18T07:23:46.820Z,9.70
2022-11-18T07:26:14.624Z,9.70
2022-11-18T07:28:41.916Z,9.60
2022-11-18T07:31:13.665Z,9.60
2022-11-18T07:33:44.321Z,9.70
2022-11-18T07:36:13.597Z,9.60
2022-11-18T07:38:42.138Z,9.60
2022-11-18T07:41:11.830Z,9.60
2022-11-18T07:43:39.258Z,9.70
2022-11-18T07:46:13.605Z,9.60
2022-11-18T07:48:45.210Z,9.70
2022-11-18T07:51:14.920Z,9.70
2022-11-18T07:53:43.182Z,9.70
2022-11-18T07:56:10.933Z,9.70
2022-11-18T07:58:38.356Z,9.70
2022-11-18T08:01:13.752Z,9.70
2022-11-18T08:03:42.384Z,9.80
2022-11-18T08:06:10.881Z,9.70
2022-11-18T08:08:38.187Z,9.70
2022-11-18T08:11:08.387Z,9.80
2022-11-18T08:13:36.166Z,9.80
2022-11-18T08:16:04.536Z,9.80
2022-11-18T08:18:32.715Z,9.90
2022-11-18T08:21:06.124Z,9.90
2022-11-18T08:23:37.409Z,9.90
2022-11-18T08:26:12.187Z,9.90
2022-11-18T08:28:39.235Z,9.90
2022-11-18T08:31:19.418Z,10.00
2022-11-18T08:33:46.791Z,10.00
2022-11-18T08:36:17.862Z,10.00
2022-11-18T08:38:44.973Z,10.00
2022-11-18T08:41:17.528Z,10.00
2022-11-18T08:43:44.485Z,10.00
2022-11-18T08:46:11.379Z,10.00
2022-11-18T08:48:39.157Z,10.00
2022-11-18T08:51:06.249Z,10.10
2022-11-18T08:53:33.095Z,10.10
2022-11-18T08:56:01.146Z,10.00
2022-11-18T08:58:28.533Z,10.00
2022-11-18T09:00:55.599Z,10.10
2022-11-18T09:03:23.128Z,10.20
2022-11-18T09:05:50.218Z,10.20
2022-11-18T09:08:17.309Z,10.20
2022-11-18T09:10:44.031Z,10.20
2022-11-18T09:13:49.738Z,10.20
2022-11-18T09:16:01.026Z,10.20
2022-11-18T09:18:28.137Z,10.30
2022-11-18T09:21:06.493Z,10.30
2022-11-18T09:23:35.096Z,10.30
2022-11-18T09:26:05.265Z,10.30
2022-11-18T09:28:33.595Z,10.30
2022-11-18T09:31:11.302Z,10.20
2022-11-18T09:33:38.652Z,10.20
2022-11-18T09:36:11.150Z,10.10
2022-11-18T09:38:38.077Z,10.10
2022-11-18T09:41:29.241Z,10.10
2022-11-18T09:44:16.419Z,10.10
2022-11-18T09:47:14.934Z,10.10
2022-11-18T09:49:44.044Z,10.10
2022-11-18T09:52:24.707Z,10.20
2022-11-18T09:54:52.611Z,10.10
2022-11-18T09:57:38.812Z,10.20
2022-11-18T10:00:21.282Z,10.20
2022-11-18T10:03:08.313Z,10.20
2022-11-18T10:05:49.846Z,10.30
2022-11-18T10:08:32.070Z,10.30
2022-11-18T10:11:10.909Z,10.30
2022-11-18T10:13:55.989Z,10.30
2022-11-18T10:16:31.851Z,10.30
2022-11-18T10:19:27.063Z,10.30
2022-11-18T10:22:11.733Z,10.30
2022-11-18T10:24:49.592Z,10.40
2022-11-18T10:27:17.456Z,10.50
2022-11-18T10:29:53.353Z,10.50
2022-11-18T10:32:20.706Z,10.60
2022-11-18T10:34:54.854Z,10.60
2022-11-18T10:38:00.238Z,10.60
2022-11-18T10:40:27.555Z,10.70
2022-11-18T10:42:56.172Z,10.80
2022-11-18T10:45:22.937Z,10.80
2022-11-18T10:48:17.301Z,10.90
2022-11-18T10:50:55.927Z,10.90
2022-11-18T10:53:30.970Z,10.90
2022-11-18T10:56:11.315Z,11.00
2022-11-18T10:58:45.423Z,11.00
2022-11-18T11:01:27.070Z,11.00
2022-11-18T11:04:04.758Z,11.10
2022-11-18T11:06:38.264Z,11.10
2022-11-18T11:09:23.871Z,11.00
2022-11-18T11:12:15.812Z,11.10
2022-11-18T11:14:55.746Z,11.00
2022-11-18T11:17:45.874Z,11.00
2022-11-18T11:20:24.366Z,11.00
2022-11-18T11:22:56.239Z,10.90
2022-11-18T11:29:06.646Z,11.10
2022-11-18T11:32:05.623Z,11.20
2022-11-18T11:34:44.214Z,11.30
2022-11-18T11:37:25.534Z,11.40
2022-11-18T11:40:23.722Z,11.50
2022-11-18T11:43:15.256Z,11.50
2022-11-18T11:46:11.940Z,11.60
2022-11-18T11:48:44.346Z,11.50
2022-11-18T11:51:25.067Z,11.50
2022-11-18T11:54:05.274Z,11.50
2022-11-18T11:56:49.047Z,11.40
2022-11-18T11:59:37.971Z,11.40
2022-11-18T12:02:38.804Z,11.50
2022-11-18T12:05:11.520Z,11.50
2022-11-18T12:07:53.456Z,11.30
2022-11-18T12:11:00.393Z,11.20
2022-11-18T12:13:39.207Z,11.20
2022-11-18T12:16:23.274Z,11.30
2022-11-18T12:19:13.477Z,11.40
2022-11-18T12:21:46.406Z,11.50
2022-11-18T12:24:36.944Z,11.40
2022-11-18T12:27:20.117Z,11.40
2022-11-18T12:29:50.191Z,11.40
2022-11-18T12:32:46.704Z,11.40
2022-11-18T12:35:13.481Z,11.30
2022-11-18T12:37:57.947Z,11.20
2022-11-18T12:40:44.916Z,11.20
2022-11-18T12:43:49.558Z,11.20
2022-11-18T12:46:34.649Z,11.30
2022-11-18T12:49:23.066Z,11.30
2022-11-18T12:51:50.749Z,11.50
2022-11-18T12:54:36.364Z,11.60
2022-11-18T12:57:15.447Z,11.70
2022-11-18T12:59:42.138Z,11.70
2022-11-18T13:02:11.539Z,11.70
2022-11-18T13:04:44.944Z,11.80
2022-11-18T13:07:32.562Z,11.90
2022-11-18T13:10:00.540Z,12.00
2022-11-18T13:12:29.898Z,12.10
2022-11-18T13:15:15.748Z,12.20
2022-11-18T13:17:52.042Z,12.30
2022-11-18T13:20:27.691Z,12.30
2022-11-18T13:23:15.386Z,12.20
2022-11-18T13:25:47.100Z,12.30
2022-11-18T13:28:37.263Z,12.40
2022-11-18T13:31:22.051Z,12.60
2022-11-18T13:33:49.735Z,12.60
2022-11-18T13:36:24.309Z,12.70
2022-11-18T13:38:59.660Z,12.70
2022-11-18T13:41:35.198Z,12.70
2022-11-18T13:44:25.194Z,12.80
2022-11-18T13:46:58.424Z,12.90
2022-11-18T13:49:50.336Z,12.90
2022-11-18T13:52:46.382Z,12.90
2022-11-18T13:55:27.494Z,13.00
2022-11-18T13:58:05.382Z,13.00
2022-11-18T14:00:35.977Z,13.00
2022-11-18T14:03:46.226Z,12.80
2022-11-18T14:06:34.182Z,12.80
2022-11-18T14:09:06.558Z,12.60
2022-11-18T14:11:42.316Z,12.50
2022-11-18T14:14:10.899Z,12.50
2022-11-18T14:16:40.228Z,12.60
2022-11-18T14:19:07.637Z,12.60
2022-11-18T14:21:38.159Z,12.60
2022-11-18T14:24:05.755Z,12.60
2022-11-18T14:26:38.202Z,12.60
2022-11-18T14:29:22.938Z,12.60
2022-11-18T14:32:11.645Z,12.60
2022-11-18T14:34:38.374Z,12.60
2022-11-18T14:37:12.227Z,12.50
2022-11-18T14:39:39.799Z,12.40
2022-11-18T14:42:10.912Z,12.30
2022-11-18T14:44:37.597Z,12.30
2022-11-18T14:47:27.274Z,12.30
2022-11-18T14:49:54.023Z,12.20
2022-11-18T14:52:20.856Z,12.20
2022-11-18T14:54:47.565Z,12.10
2022-11-18T14:57:16.867Z,12.10
2022-11-18T14:59:43.620Z,12.00
2022-11-18T15:02:15.146Z,12.00
2022-11-18T15:04:41.864Z,11.90
2022-11-18T15:07:18.601Z,11.90
2022-11-18T15:09:49.882Z,11.80
2022-11-18T15:12:16.910Z,11.70
2022-11-18T15:14:43.645Z,11.60
2022-11-18T15:17:12.390Z,11.60
2022-11-18T15:19:40.798Z,11.50
2022-11-18T15:22:07.942Z,11.50
2022-11-18T15:24:34.623Z,11.50
2022-11-18T15:27:05.185Z,11.50
2022-11-18T15:29:32.092Z,11.40
2022-11-18T15:31:59.943Z,11.30
2022-11-18T15:34:26.740Z,11.20
2022-11-18T15:36:53.529Z,11.20
2022-11-18T15:39:20.410Z,11.20
2022-11-18T15:41:47.300Z,11.20
2022-11-18T15:44:14.119Z,11.20
2022-11-18T15:46:41.851Z,11.10
2022-11-18T15:49:13.980Z,11.10
2022-11-18T15:51:41.161Z,11.00
2022-11-18T15:54:07.861Z,11.00
2022-11-18T15:56:35.143Z,11.00
2022-11-18T15:59:02.944Z,10.90
2022-11-18T16:01:35.379Z,10.80
2022-11-18T16:04:03.595Z,10.80
2022-11-18T16:06:30.641Z,10.80
2022-11-18T16:08:59.924Z,10.80
2022-11-18T16:11:47.342Z,10.70
2022-11-18T16:14:16.776Z,10.70
2022-11-18T16:16:46.070Z,10.70
2022-11-18T16:19:15.666Z,10.60
2022-11-18T16:21:46.375Z,10.60
2022-11-18T16:24:16.843Z,10.60
2022-11-18T16:26:44.063Z,10.60
2022-11-18T16:29:12.466Z,10.60
2022-11-18T16:31:39.858Z,10.50
2022-11-18T16:34:17.761Z,10.60
2022-11-18T16:36:46.986Z,10.50
2022-11-18T16:39:24.089Z,10.50
2022-11-18T16:41:52.069Z,10.50
2022-11-18T16:44:19.314Z,10.40
2022-11-18T16:46:48.529Z,10.40
2022-11-18T16:49:17.500Z,10.30
2022-11-18T16:51:46.873Z,10.40
2022-11-18T16:54:24.835Z,10.30
2022-11-18T16:56:53.231Z,10.30
2022-11-18T16:59:24.745Z,10.20
2022-11-18T17:01:53.436Z,10.20
2022-11-18T17:04:21.610Z,10.30
2022-11-18T17:06:49.778Z,10.20
2022-11-18T17:09:19.367Z,10.20
2022-11-18T17:11:47.190Z,10.20
2022-11-18T17:14:14.144Z,10.20
2022-11-18T17:16:41.114Z,10.20
2022-11-18T17:19:11.921Z,10.20
2022-11-18T17:21:39.150Z,10.20
2022-11-18T17:24:06.760Z,10.10
2022-11-18T17:26:33.479Z,10.20
2022-11-18T17:29:00.351Z,10.10
2022-11-18T17:31:27.016Z,10.10
2022-11-18T17:33:55.724Z,10.10
2022-11-18T17:36:27.186Z,10.10
2022-11-18T17:38:56.000Z,10.10
2022-11-18T17:41:43.230Z,10.10
2022-11-18T17:44:12.313Z,10.00
2022-11-18T17:46:39.237Z,10.00
2022-11-18T17:49:10.508Z,10.00
2022-11-18T17:51:37.248Z,9.90
2022-11-18T17:54:04.071Z,9.90
2022-11-18T17:56:30.791Z,9.90
2022-11-18T17:58:57.564Z,9.80
2022-11-18T18:01:24.398Z,9.90
2022-11-18T18:03:51.243Z,9.80
2022-11-18T18:06:19.238Z,9.80
2022-11-18T18:08:45.970Z,9.90
2022-11-18T18:11:19.389Z,9.80
2022-11-18T18:14:05.050Z,9.80
2022-11-18T18:16:33.419Z,9.80
2022-11-18T18:19:02.434Z,9.80
2022-11-18T18:21:29.375Z,9.90
2022-11-18T18:23:56.537Z,9.80
2022-11-18T18:26:26.745Z,9.80
2022-11-18T18:28:58.301Z,9.80
2022-11-18T18:31:25.433Z,9.80
2022-11-18T18:33:52.168Z,9.80
2022-11-18T18:36:20.347Z,9.80
2022-11-18T18:38:47.552Z,9.70
2022-11-18T18:41:17.335Z,9.70
2022-11-18T18:43:46.029Z,9.70
2022-11-18T18:46:36.463Z,9.70
2022-11-18T18:49:11.590Z,9.70
2022-11-18T18:51:40.586Z,9.70
2022-11-18T18:54:10.235Z,9.70
2022-11-18T18:56:38.503Z,9.70
2022-11-18T18:59:05.718Z,9.70
2022-11-18T19:01:33.665Z,9.60
2022-11-18T19:04:03.565Z,9.70
2022-11-18T19:09:19.841Z,9.70
2022-11-18T19:12:05.457Z,9.70
2022-11-18T19:14:34.820Z,9.60
2022-11-18T19:17:06.646Z,9.70
2022-11-18T19:19:54.710Z,9.70
2022-11-18T19:22:21.366Z,9.70
2022-11-18T19:24:50.565Z,9.70
2022-11-18T19:27:19.302Z,9.60
2022-11-18T19:29:46.393Z,9.60
2022-11-18T19:32:13.579Z,9.60
2022-11-18T19:34:40.298Z,9.60
2022-11-18T19:37:07.266Z,9.50
2022-11-18T19:39:35.130Z,9.50
2022-11-18T19:42:02.131Z,9.50
2022-11-18T19:44:29.083Z,9.50
2022-11-18T19:46:55.783Z,9.50
2022-11-18T19:49:22.858Z,9.50
2022-11-18T19:51:49.951Z,9.50
2022-11-18T19:54:16.654Z,9.40
2022-11-18T19:56:43.578Z,9.40
2022-11-18T19:59:12.577Z,9.40
2022-11-18T20:01:39.584Z,9.40
2022-11-18T20:04:06.353Z,9.40
2022-11-18T20:06:35.091Z,9.30
2022-11-18T20:09:02.402Z,9.30
2022-11-18T20:11:29.215Z,9.30
2022-11-18T20:13:58.602Z,9.30
2022-11-18T20:16:43.761Z,9.30
2022-11-18T20:19:13.733Z,9.30
2022-11-18T20:21:43.356Z,9.30
2022-11-18T20:24:15.971Z,9.20
2022-11-18T20:26:44.151Z,9.10
2022-11-18T20:29:10.940Z,9.10
2022-11-18T20:31:37.765Z,9.10
2022-11-18T20:34:04.837Z,9.10
2022-11-18T20:36:36.281Z,9.10
2022-11-18T20:39:11.208Z,9.10
2022-11-18T20:41:37.910Z,9.10
2022-11-18T20:44:04.821Z,9.10
2022-11-18T20:46:31.689Z,9.10
2022-11-18T20:48:58.448Z,9.10
2022-11-18T20:51:27.901Z,9.10
2022-11-18T20:53:56.566Z,9.10
2022-11-18T20:56:27.776Z,9.10
2022-11-18T20:58:57.182Z,9.10
2022-11-18T21:01:26.730Z,9.10
2022-11-18T21:03:55.844Z,9.00
2022-11-18T21:06:24.619Z,9.00
2022-11-18T21:08:55.902Z,9.00
2022-11-18T21:11:22.742Z,9.00
2022-11-18T21:14:07.940Z,9.00
2022-11-18T21:16:34.595Z,8.90
2022-11-18T21:19:01.287Z,8.90
2022-11-18T21:21:47.762Z,8.90
2022-11-18T21:24:22.925Z,8.90
2022-11-18T21:26:52.591Z,8.90
2022-11-18T21:29:19.721Z,8.90
2022-11-18T21:31:50.025Z,8.90
2022-11-18T21:34:17.739Z,8.90
2022-11-18T21:36:49.009Z,8.90
2022-11-18T21:39:18.656Z,8.90
2022-11-18T21:41:47.534Z,9.00
2022-11-18T21:44:17.514Z,8.90
2022-11-18T21:46:44.224Z,8.90
2022-11-18T21:49:11.003Z,8.90
2022-11-18T21:51:37.976Z,8.90
2022-11-18T21:54:05.164Z,8.90
2022-11-18T21:56:32.204Z,8.90
2022-11-18T21:59:00.981Z,8.80
2022-11-18T22:01:30.280Z,8.90
2022-11-18T22:03:59.168Z,8.90
2022-11-18T22:06:31.632Z,8.90
2022-11-18T22:08:58.643Z,8.90
2022-11-18T22:11:25.909Z,8.90
2022-11-18T22:13:53.275Z,8.90
2022-11-18T22:16:22.523Z,8.90
2022-11-18T22:18:56.657Z,8.90
2022-11-18T22:21:28.560Z,8.90
2022-11-18T22:24:00.407Z,8.90
2022-11-18T22:26:28.500Z,8.90
2022-11-18T22:28:57.211Z,8.90
2022-11-18T22:31:26.359Z,8.90
2022-11-18T22:33:54.466Z,8.90
2022-11-18T22:36:23.143Z,8.90
2022-11-18T22:38:50.457Z,8.90
2022-11-18T22:41:41.584Z,8.80
2022-11-18T22:44:09.658Z,8.90
2022-11-18T22:46:37.785Z,8.80
2022-11-18T22:49:05.855Z,8.80
2022-11-18T22:51:33.150Z,8.80
2022-11-18T22:54:30.913Z,8.80
2022-11-18T22:56:46.711Z,8.80
2022-11-18T22:59:13.918Z,8.80
2022-11-18T23:01:40.740Z,8.80
2022-11-18T23:04:07.700Z,8.80
2022-11-18T23:06:34.428Z,8.80
2022-11-18T23:09:01.156Z,8.80
2022-11-18T23:11:46.360Z,8.80
2022-11-18T23:14:13.179Z,8.70
2022-11-18T23:16:41.777Z,8.80
2022-11-18T23:19:10.908Z,8.80
2022-11-18T23:21:37.953Z,8.80
2022-11-18T23:24:05.282Z,8.70
2022-11-18T23:26:32.164Z,8.70
2022-11-18T23:28:59.416Z,8.80
2022-11-18T23:31:27.446Z,8.70
2022-11-18T23:33:55.486Z,8.70
2022-11-18T23:36:23.254Z,8.70
2022-11-18T23:38:50.165Z,8.70
2022-11-18T23:41:17.828Z,8.70
2022-11-18T23:43:48.501Z,8.70
2022-11-18T23:46:17.581Z,8.70
2022-11-18T23:48:45.318Z,8.80
2022-11-18T23:51:18.268Z,8.70
2022-11-18T23:53:46.035Z,8.70
2022-11-18T23:56:17.588Z,8.70
2022-11-18T23:58:47.718Z,8.70
